Time;durP1;ratioP1;P1;durP2;ratioP2;P2;SDS_P1;SDS_P2;PMS_P1;PMS_P2;Temp;Humidity;BMP_temperature;BMP_pressure;BME280_temperature;BME280_humidity;BME280_pressure;Samples;Min_cycle;Max_cycle;Signal;HPM_P1;HPM_P2
2023/10/21 00:01:58;;;;;;;3.75;1.95;;;;;;;;;;5056349;28;20446;-77
2023/10/21 00:04:27;;;;;;;3.73;2.23;;;;;;;;;;5056118;28;20256;-77
2023/10/21 00:06:54;;;;;;;2.80;1.77;;;;;;;;;;5056556;28;20483;-77
2023/10/21 00:09:21;;;;;;;3.73;1.90;;;;;;;;;;5056723;28;20433;-77
2023/10/21 00:11:49;;;;;;;3.50;1.80;;;;;;;;;;5056279;28;20453;-77
2023/10/21 00:14:17;;;;;;;3.30;1.77;;;;;;;;;;5055691;28;20503;-77
2023/10/21 00:16:44;;;;;;;3.88;1.30;;;;;;;;;;5056428;28;20850;-77
2023/10/21 00:19:12;;;;;;;2.77;1.40;;;;;;;;;;5056122;28;20195;-77
2023/10/21 00:21:40;;;;;;;2.70;1.45;;;;;;;;;;5055838;28;20994;-77
2023/10/21 00:24:08;;;;;;;3.03;1.80;;;;;;;;;;5055456;28;20238;-77
2023/10/21 00:26:44;;;;;;;4.10;1.80;;;;;;;;;;5056099;28;20520;-77
2023/10/21 00:29:14;;;;;;;3.17;1.53;;;;;;;;;;5056224;28;20425;-77
2023/10/21 00:31:43;;;;;;;2.83;1.60;;;;;;;;;;5056118;28;20430;-77
2023/10/21 00:34:10;;;;;;;2.47;1.23;;;;;;;;;;5055632;28;20527;-77
2023/10/21 00:36:37;;;;;;;3.30;1.87;;;;;;;;;;5055281;28;20473;-77
2023/10/21 00:39:10;;;;;;;2.50;1.33;;;;;;;;;;5055613;28;20442;-77
2023/10/21 00:41:39;;;;;;;2.30;1.10;;;;;;;;;;5055944;28;20505;-77
2023/10/21 00:44:07;;;;;;;4.27;1.13;;;;;;;;;;5055344;28;21013;-77
2023/10/21 00:46:42;;;;;;;2.20;1.27;;;;;;;;;;5055392;28;20433;-77
2023/10/21 00:49:09;;;;;;;2.70;1.20;;;;;;;;;;5055228;28;20464;-77
2023/10/21 00:51:39;;;;;;;2.60;1.40;;;;;;;;;;5055581;28;20441;-77
2023/10/21 00:54:08;;;;;;;3.83;1.40;;;;;;;;;;5055653;28;20837;-77
2023/10/21 00:56:36;;;;;;;2.50;1.13;;;;;;;;;;5055354;28;20492;-77
2023/10/21 00:59:03;;;;;;;2.77;1.47;;;;;;;;;;5055737;28;20456;-77
2023/10/21 01:01:31;;;;;;;4.57;1.77;;;;;;;;;;5055483;28;20484;-77
2023/10/21 01:04:00;;;;;;;2.97;1.57;;;;;;;;;;5055288;28;20469;-77
2023/10/21 01:06:27;;;;;;;2.10;0.90;;;;;;;;;;5054296;28;20981;-77
2023/10/21 01:08:54;;;;;;;2.30;1.30;;;;;;;;;;5055119;28;20506;-77
2023/10/21 01:11:23;;;;;;;2.70;1.00;;;;;;;;;;5054928;28;20495;-77
2023/10/21 01:13:51;;;;;;;2.63;1.17;;;;;;;;;;5054661;28;20668;-77
2023/10/21 01:16:18;;;;;;;2.72;1.20;;;;;;;;;;5055107;28;20425;-77
2023/10/21 01:18:45;;;;;;;3.00;1.00;;;;;;;;;;5054527;28;20191;-77
2023/10/21 01:21:13;;;;;;;2.70;1.00;;;;;;;;;;5054742;28;20974;-78
2023/10/21 01:23:42;;;;;;;2.00;1.00;;;;;;;;;;5054574;28;20186;-77
2023/10/21 01:26:12;;;;;;;3.05;1.20;;;;;;;;;;5055041;28;20433;-77
2023/10/21 01:28:41;;;;;;;2.20;1.10;;;;;;;;;;5054948;28;20241;-77
2023/10/21 01:31:08;;;;;;;2.40;1.30;;;;;;;;;;5054911;28;20437;-77
2023/10/21 01:33:36;;;;;;;2.40;1.23;;;;;;;;;;5054407;28;20194;-77
2023/10/21 01:36:03;;;;;;;2.80;1.40;;;;;;;;;;5054251;28;20446;-77
2023/10/21 01:38:30;;;;;;;2.53;1.30;;;;;;;;;;5055092;28;20236;-77
2023/10/21 01:40:59;;;;;;;2.67;0.90;;;;;;;;;;5054680;28;20495;-77
2023/10/21 01:43:27;;;;;;;2.00;0.93;;;;;;;;;;5054554;28;20524;-77
2023/10/21 01:45:56;;;;;;;2.43;1.20;;;;;;;;;;5054695;28;20542;-77
2023/10/21 01:48:23;;;;;;;2.40;1.10;;;;;;;;;;5053771;28;20465;-77
2023/10/21 01:50:59;;;;;;;3.47;1.10;;;;;;;;;;5054399;28;20445;-77
2023/10/21 01:53:27;;;;;;;1.90;0.80;;;;;;;;;;5054216;28;20425;-77
2023/10/21 01:56:01;;;;;;;2.90;1.10;;;;;;;;;;5054238;28;20448;-77
2023/10/21 01:58:29;;;;;;;2.93;0.97;;;;;;;;;;5053890;28;20461;-77
2023/10/21 02:00:56;;;;;;;2.83;1.10;;;;;;;;;;5054090;28;20438;-77
2023/10/21 02:03:23;;;;;;;1.90;0.90;;;;;;;;;;5053613;28;20441;-77
2023/10/21 02:05:51;;;;;;;3.00;1.40;;;;;;;;;;5053706;28;20563;-77
2023/10/21 02:08:20;;;;;;;2.57;1.37;;;;;;;;;;5053876;28;20924;-77
2023/10/21 02:10:47;;;;;;;2.30;1.20;;;;;;;;;;5053627;28;20819;-77
2023/10/21 02:13:16;;;;;;;3.17;1.40;;;;;;;;;;5053796;28;20503;-77
2023/10/21 02:15:43;;;;;;;2.10;1.00;;;;;;;;;;5054098;28;20498;-78
2023/10/21 02:18:11;;;;;;;2.43;1.03;;;;;;;;;;5052794;28;20438;-77
2023/10/21 02:20:38;;;;;;;2.30;1.20;;;;;;;;;;5053931;28;20433;-77
2023/10/21 02:23:06;;;;;;;2.10;1.20;;;;;;;;;;5053519;28;20187;-77
2023/10/21 02:25:34;;;;;;;2.47;1.17;;;;;;;;;;5053709;28;20469;-77
2023/10/21 02:28:04;;;;;;;2.10;1.07;;;;;;;;;;5053952;28;20796;-77
2023/10/21 02:30:32;;;;;;;2.27;0.93;;;;;;;;;;5052184;28;20444;-77
2023/10/21 02:33:00;;;;;;;3.40;0.77;;;;;;;;;;5053184;28;20777;-77
2023/10/21 02:35:27;;;;;;;2.70;1.40;;;;;;;;;;5053698;28;20434;-77
2023/10/21 02:37:55;;;;;;;2.53;1.07;;;;;;;;;;5053681;28;20842;-77
2023/10/21 02:40:22;;;;;;;3.20;1.17;;;;;;;;;;5053328;28;20440;-77
2023/10/21 02:42:49;;;;;;;2.20;1.10;;;;;;;;;;5053561;28;20437;-77
2023/10/21 02:45:17;;;;;;;2.20;1.10;;;;;;;;;;5053103;28;20863;-77
2023/10/21 02:47:45;;;;;;;3.60;1.13;;;;;;;;;;5053078;28;20519;-77
2023/10/21 02:50:13;;;;;;;2.77;1.73;;;;;;;;;;5053602;28;20421;-77
2023/10/21 02:52:40;;;;;;;2.83;2.00;;;;;;;;;;5052921;28;20928;-77
2023/10/21 02:55:08;;;;;;;3.30;1.97;;;;;;;;;;5053459;28;20450;-77
2023/10/21 02:57:35;;;;;;;2.70;1.30;;;;;;;;;;5053054;28;20932;-77
2023/10/21 03:00:04;;;;;;;4.13;1.80;;;;;;;;;;5053372;28;20852;-77
2023/10/21 03:02:32;;;;;;;3.00;1.70;;;;;;;;;;5052935;28;20436;-77
2023/10/21 03:05:00;;;;;;;3.53;1.70;;;;;;;;;;5052944;28;20472;-77
2023/10/21 03:07:28;;;;;;;4.47;1.60;;;;;;;;;;5053001;28;20441;-77
2023/10/21 03:09:56;;;;;;;2.30;1.43;;;;;;;;;;5053512;28;20433;-77
2023/10/21 03:12:23;;;;;;;2.50;1.80;;;;;;;;;;5053219;28;20437;-77
2023/10/21 03:14:50;;;;;;;2.73;1.80;;;;;;;;;;5053295;28;20433;-77
2023/10/21 03:17:19;;;;;;;2.87;1.40;;;;;;;;;;5052517;28;20437;-78
2023/10/21 03:19:46;;;;;;;2.80;1.40;;;;;;;;;;5052687;28;20498;-77
2023/10/21 03:22:15;;;;;;;3.80;2.10;;;;;;;;;;5053078;28;20437;-77
2023/10/21 03:24:42;;;;;;;3.83;1.80;;;;;;;;;;5053090;28;20473;-77
2023/10/21 03:27:10;;;;;;;3.60;1.70;;;;;;;;;;5052360;28;20457;-77
2023/10/21 03:29:37;;;;;;;2.83;1.67;;;;;;;;;;5055457;28;20437;-77
2023/10/21 03:32:05;;;;;;;3.00;1.50;;;;;;;;;;5057169;28;20453;-77
2023/10/21 03:34:35;;;;;;;2.80;1.50;;;;;;;;;;5056691;28;20433;-77
2023/10/21 03:37:02;;;;;;;2.60;1.30;;;;;;;;;;5056471;28;20437;-77
2023/10/21 03:39:32;;;;;;;5.10;1.27;;;;;;;;;;5056973;28;20460;-77
2023/10/21 03:41:59;;;;;;;3.10;1.37;;;;;;;;;;5056960;28;20437;-77
2023/10/21 03:44:28;;;;;;;2.30;1.20;;;;;;;;;;5056782;28;20499;-77
2023/10/21 03:46:55;;;;;;;2.90;1.10;;;;;;;;;;5056212;28;20635;-77
2023/10/21 03:49:23;;;;;;;3.87;1.40;;;;;;;;;;5056422;28;20475;-78
2023/10/21 03:51:50;;;;;;;2.33;1.27;;;;;;;;;;5056676;28;20495;-78
2023/10/21 03:54:18;;;;;;;2.40;1.40;;;;;;;;;;5056694;28;20456;-77
2023/10/21 03:56:51;;;;;;;2.60;1.10;;;;;;;;;;5056760;28;20528;-77
2023/10/21 03:59:32;;;;;;;2.87;1.60;;;;;;;;;;5056636;28;20477;-77
2023/10/21 04:01:59;;;;;;;2.87;1.40;;;;;;;;;;5055944;28;20521;-77
2023/10/21 04:04:27;;;;;;;2.90;1.10;;;;;;;;;;5056456;28;20430;-77
2023/10/21 04:06:54;;;;;;;3.27;0.90;;;;;;;;;;5056429;28;20287;-77
2023/10/21 04:09:25;;;;;;;4.17;1.40;;;;;;;;;;5056222;28;20494;-77
2023/10/21 04:11:54;;;;;;;2.40;1.10;;;;;;;;;;5056479;28;20505;-77
2023/10/21 04:14:24;;;;;;;2.47;1.40;;;;;;;;;;5056338;28;20495;-77
2023/10/21 04:16:51;;;;;;;2.47;1.10;;;;;;;;;;5056407;28;20425;-77
2023/10/21 04:19:19;;;;;;;2.20;1.35;;;;;;;;;;5056304;28;20443;-77
2023/10/21 04:21:46;;;;;;;2.33;1.23;;;;;;;;;;5056056;28;20183;-77
2023/10/21 04:24:15;;;;;;;3.00;1.60;;;;;;;;;;5056209;28;20433;-77
2023/10/21 04:26:42;;;;;;;2.33;1.30;;;;;;;;;;5056252;28;20560;-77
2023/10/21 04:29:11;;;;;;;3.03;1.60;;;;;;;;;;5055834;28;20475;-77
2023/10/21 04:31:39;;;;;;;2.67;1.47;;;;;;;;;;5055238;28;20475;-77
2023/10/21 04:34:13;;;;;;;3.63;1.83;;;;;;;;;;5055976;28;20464;-77
2023/10/21 04:36:41;;;;;;;5.57;1.87;;;;;;;;;;5055956;28;20456;-77
2023/10/21 04:39:08;;;;;;;2.53;1.20;;;;;;;;;;5056281;28;20440;-77
2023/10/21 04:41:35;;;;;;;2.77;1.70;;;;;;;;;;5053696;28;20471;-77
2023/10/21 04:44:03;;;;;;;3.73;1.60;;;;;;;;;;5055325;28;20446;-77
2023/10/21 04:46:31;;;;;;;5.90;1.58;;;;;;;;;;5055151;28;20483;-77
2023/10/21 04:48:59;;;;;;;2.33;1.67;;;;;;;;;;5055074;28;20223;-77
2023/10/21 04:51:28;;;;;;;3.80;2.93;;;;;;;;;;5055373;28;20433;-77
2023/10/21 04:53:56;;;;;;;4.87;3.07;;;;;;;;;;5055242;28;20500;-77
2023/10/21 04:56:25;;;;;;;3.90;2.57;;;;;;;;;;5055431;28;20798;-77
2023/10/21 04:58:52;;;;;;;4.50;3.70;;;;;;;;;;5055410;28;20836;-77
2023/10/21 05:01:20;;;;;;;3.77;3.20;;;;;;;;;;5055374;28;20434;-77
2023/10/21 05:03:49;;;;;;;4.57;3.17;;;;;;;;;;5054874;28;20444;-77
2023/10/21 05:06:16;;;;;;;3.30;2.50;;;;;;;;;;5054662;28;20465;-77
2023/10/21 05:08:44;;;;;;;3.73;2.80;;;;;;;;;;5054939;28;20214;-77
2023/10/21 05:11:11;;;;;;;3.20;2.33;;;;;;;;;;5055049;28;20434;-77
2023/10/21 05:13:39;;;;;;;2.53;1.87;;;;;;;;;;5054556;28;20441;-77
2023/10/21 05:16:06;;;;;;;3.67;1.87;;;;;;;;;;5054669;28;20935;-77
2023/10/21 05:18:33;;;;;;;2.80;1.98;;;;;;;;;;5054824;28;20441;-77
2023/10/21 05:21:06;;;;;;;4.00;1.90;;;;;;;;;;5054609;28;20542;-77
2023/10/21 05:23:33;;;;;;;3.37;2.10;;;;;;;;;;5055572;28;20442;-77
2023/10/21 05:26:00;;;;;;;3.77;2.63;;;;;;;;;;5054749;28;20473;-77
2023/10/21 05:28:28;;;;;;;3.00;1.73;;;;;;;;;;5054986;28;20437;-77
2023/10/21 05:30:55;;;;;;;3.10;1.70;;;;;;;;;;5054326;28;20499;-77
2023/10/21 05:33:22;;;;;;;2.93;1.87;;;;;;;;;;5054832;28;20448;-77
2023/10/21 05:35:50;;;;;;;4.30;1.13;;;;;;;;;;5054519;28;20441;-77
2023/10/21 05:38:19;;;;;;;2.43;1.23;;;;;;;;;;5054742;28;20451;-77
2023/10/21 05:40:46;;;;;;;2.50;1.33;;;;;;;;;;5054489;28;20540;-77
2023/10/21 05:43:17;;;;;;;2.77;1.10;;;;;;;;;;5053851;28;20472;-77
2023/10/21 05:45:44;;;;;;;2.50;1.10;;;;;;;;;;5054314;28;20457;-77
2023/10/21 05:48:11;;;;;;;2.47;1.43;;;;;;;;;;5053668;28;20465;-77
2023/10/21 05:50:39;;;;;;;2.90;1.37;;;;;;;;;;5053759;28;20919;-77
2023/10/21 05:53:07;;;;;;;3.05;1.40;;;;;;;;;;5053617;28;20560;-77
2023/10/21 05:55:41;;;;;;;3.33;1.53;;;;;;;;;;5054156;28;20244;-77
2023/10/21 05:58:10;;;;;;;2.10;1.10;;;;;;;;;;5053697;28;20437;-77
2023/10/21 06:00:37;;;;;;;3.40;2.20;;;;;;;;;;5054403;28;20434;-77
2023/10/21 06:03:05;;;;;;;3.07;1.83;;;;;;;;;;5053708;28;20440;-77
2023/10/21 06:05:32;;;;;;;2.87;2.03;;;;;;;;;;5053188;28;20542;-77
2023/10/21 06:08:00;;;;;;;2.93;2.10;;;;;;;;;;5054027;28;20414;-77
2023/10/21 06:10:27;;;;;;;3.10;1.60;;;;;;;;;;5053818;28;20791;-77
2023/10/21 06:12:57;;;;;;;2.40;1.27;;;;;;;;;;5053893;28;20429;-77
2023/10/21 06:15:25;;;;;;;2.40;1.67;;;;;;;;;;5054086;28;20433;-77
2023/10/21 06:17:53;;;;;;;2.00;1.17;;;;;;;;;;5053713;28;20600;-77
2023/10/21 06:20:22;;;;;;;2.30;1.13;;;;;;;;;;5053441;28;20445;-77
2023/10/21 06:22:49;;;;;;;3.60;1.60;;;;;;;;;;5053697;28;20452;-77
2023/10/21 06:25:17;;;;;;;3.57;1.73;;;;;;;;;;5053621;28;20516;-77
2023/10/21 06:27:45;;;;;;;3.83;1.70;;;;;;;;;;5053367;28;20456;-77
2023/10/21 06:30:14;;;;;;;2.70;1.60;;;;;;;;;;5053026;28;20453;-78
2023/10/21 06:32:47;;;;;;;3.80;1.60;;;;;;;;;;5053230;28;20437;-77
2023/10/21 06:35:15;;;;;;;3.03;2.20;;;;;;;;;;5053562;28;20471;-78
2023/10/21 06:37:43;;;;;;;4.53;2.47;;;;;;;;;;5053551;28;20433;-78
2023/10/21 06:40:11;;;;;;;4.20;2.73;;;;;;;;;;5053436;28;20507;-78
2023/10/21 06:42:41;;;;;;;4.80;2.57;;;;;;;;;;5052701;28;20441;-78
2023/10/21 06:45:09;;;;;;;4.40;2.37;;;;;;;;;;5053244;28;20435;-78
2023/10/21 06:47:42;;;;;;;3.80;2.50;;;;;;;;;;5052872;28;20499;-78
2023/10/21 06:50:11;;;;;;;6.53;2.10;;;;;;;;;;5053279;28;20414;-78
2023/10/21 06:52:38;;;;;;;3.47;1.53;;;;;;;;;;5053555;28;20939;-78
2023/10/21 06:55:08;;;;;;;2.90;1.30;;;;;;;;;;5052742;28;20748;-78
2023/10/21 06:57:36;;;;;;;5.07;1.70;;;;;;;;;;5053598;28;20445;-79
2023/10/21 07:00:07;;;;;;;2.70;1.43;;;;;;;;;;5053108;28;20461;-79
2023/10/21 07:02:34;;;;;;;3.50;1.33;;;;;;;;;;5053414;28;20434;-79
2023/10/21 07:05:07;;;;;;;4.20;1.87;;;;;;;;;;5052034;28;20545;-79
2023/10/21 07:07:34;;;;;;;2.60;1.33;;;;;;;;;;5052957;28;20464;-79
2023/10/21 07:10:03;;;;;;;3.20;1.50;;;;;;;;;;5053053;28;20498;-79
2023/10/21 07:12:30;;;;;;;2.60;1.20;;;;;;;;;;5052984;28;20449;-79
2023/10/21 07:14:58;;;;;;;5.23;1.23;;;;;;;;;;5052866;28;20433;-79
2023/10/21 07:17:25;;;;;;;2.50;1.00;;;;;;;;;;5049631;28;20541;-79
2023/10/21 07:19:57;;;;;;;2.30;0.93;;;;;;;;;;5051605;28;20487;-79
2023/10/21 07:22:25;;;;;;;2.00;0.80;;;;;;;;;;5052499;28;20487;-79
2023/10/21 07:24:55;;;;;;;2.10;0.83;;;;;;;;;;5051285;28;20445;-80
2023/10/21 07:27:22;;;;;;;2.80;0.90;;;;;;;;;;5051587;28;20469;-80
2023/10/21 07:29:50;;;;;;;2.70;1.10;;;;;;;;;;5052250;28;20468;-80
2023/10/21 07:32:17;;;;;;;2.20;0.70;;;;;;;;;;5052113;28;20483;-80
2023/10/21 07:34:45;;;;;;;2.60;0.60;;;;;;;;;;5052326;28;20922;-80
2023/10/21 07:37:13;;;;;;;1.87;0.60;;;;;;;;;;5052127;28;20469;-80
2023/10/21 07:39:42;;;;;;;1.70;0.50;;;;;;;;;;5052116;28;20437;-80
2023/10/21 07:42:12;;;;;;;3.33;0.97;;;;;;;;;;5052230;28;20433;-80
2023/10/21 07:44:41;;;;;;;1.90;0.70;;;;;;;;;;5052673;28;20536;-81
2023/10/21 07:47:08;;;;;;;2.30;0.73;;;;;;;;;;5051856;28;20515;-81
2023/10/21 07:49:38;;;;;;;1.77;0.60;;;;;;;;;;5051806;28;21037;-81
2023/10/21 07:52:06;;;;;;;2.00;0.70;;;;;;;;;;5051923;28;20876;-81
2023/10/21 07:54:34;;;;;;;2.53;0.70;;;;;;;;;;5051610;28;20765;-81
2023/10/21 07:57:03;;;;;;;1.97;0.67;;;;;;;;;;5052108;28;20528;-81
2023/10/21 07:59:30;;;;;;;2.40;0.73;;;;;;;;;;5051965;28;20445;-82
2023/10/21 08:01:57;;;;;;;7.23;4.17;;;;;;;;;;5052024;28;20559;-81
2023/10/21 08:04:25;;;;;;;2.30;0.70;;;;;;;;;;5051901;28;20483;-82
2023/10/21 08:06:52;;;;;;;2.30;0.70;;;;;;;;;;5051331;28;20898;-82
2023/10/21 08:09:20;;;;;;;2.20;0.80;;;;;;;;;;5052217;28;20437;-82
2023/10/21 08:11:48;;;;;;;1.90;0.60;;;;;;;;;;5051621;28;20506;-82
2023/10/21 08:14:17;;;;;;;1.90;0.63;;;;;;;;;;5052275;28;20528;-82
2023/10/21 08:16:44;;;;;;;2.97;1.10;;;;;;;;;;5055680;28;20439;-82
2023/10/21 08:19:14;;;;;;;3.20;0.80;;;23.20;37.60;;;;;;5055614;28;20467;-82
2023/10/21 08:21:42;;;;;;;2.70;0.60;;;;;;;;;;5055561;28;20838;-83
2023/10/21 08:24:09;;;;;;;1.90;0.50;;;;;;;;;;5055437;28;20437;-83
2023/10/21 08:26:37;;;;;;;3.47;0.80;;;;;;;;;;5055087;28;20468;-83
2023/10/21 08:29:05;;;;;;;2.20;0.50;;;;;;;;;;5055335;28;20526;-83
2023/10/21 08:31:39;;;;;;;2.00;0.70;;;;;;;;;;5055191;28;20520;-83
2023/10/21 08:34:09;;;;;;;1.90;0.53;;;;;;;;;;5055344;28;20421;-83
2023/10/21 08:36:37;;;;;;;1.87;0.57;;;;;;;;;;5054726;28;20962;-83
2023/10/21 08:39:07;;;;;;;2.07;0.80;;;;;;;;;;5054812;28;20537;-83
2023/10/21 08:41:36;;;;;;;1.90;0.50;;;;;;;;;;5055162;28;20479;-83
2023/10/21 08:44:05;;;;;;;1.80;0.50;;;;;;;;;;5055002;28;20444;-83
2023/10/21 08:46:33;;;;;;;1.90;0.50;;;;;;;;;;5051657;28;21921;-83
2023/10/21 08:49:03;;;;;;;1.90;0.50;;;;;;;;;;5053577;28;20460;-83
2023/10/21 08:51:34;;;;;;;1.90;0.60;;;;;;;;;;5054312;28;20899;-83
2023/10/21 08:54:03;;;;;;;1.80;0.50;;;;;;;;;;5054863;28;20414;-83
2023/10/21 08:56:30;;;;;;;2.00;0.50;;;;;;;;;;5053653;28;20985;-83
2023/10/21 08:58:58;;;;;;;1.67;0.47;;;;;;;;;;5054303;28;20802;-83
2023/10/21 09:01:25;;;;;;;1.90;0.57;;;;;;;;;;5053537;28;20433;-83
2023/10/21 09:03:52;;;;;;;1.80;0.50;;;;;;;;;;5050371;28;20773;-83
2023/10/21 09:06:21;;;;;;;1.70;0.50;;;;;;;;;;5054483;28;20498;-83
2023/10/21 09:08:49;;;;;;;2.87;0.53;;;;;;;;;;5045139;28;20445;-81
2023/10/21 09:11:18;;;;;;;1.77;0.60;;;;;;;;;;5041757;28;20514;-81
2023/10/21 09:13:45;;;;;;;3.07;0.60;;;;;;;;;;5054267;28;20515;-81
2023/10/21 09:16:20;;;;;;;1.80;0.60;;;;;;;;;;5053798;28;20441;-81
2023/10/21 09:18:56;;;;;;;2.57;0.50;;;;;;;;;;5053762;28;20424;-81
2023/10/21 09:21:33;;;;;;;2.00;0.50;;;;;;;;;;5054256;28;20413;-81
2023/10/21 09:24:00;;;;;;;1.73;0.53;;;;;;;;;;5053123;28;20800;-81
2023/10/21 09:26:35;;;;;;;1.70;0.50;;;;;;;;;;5053883;28;20775;-82
2023/10/21 09:29:06;;;;;;;1.70;0.50;;;;;;;;;;5053263;28;21013;-81
2023/10/21 09:31:43;;;;;;;1.80;0.50;;;;;;;;;;5054092;28;20507;-81
2023/10/21 09:34:11;;;;;;;1.70;0.50;;;;;;;;;;5053430;28;20433;-81
2023/10/21 09:36:43;;;;;;;1.70;0.50;;;;;;;;;;5053412;28;20472;-81
2023/10/21 09:39:10;;;;;;;1.90;0.60;;;;;;;;;;5051449;28;20433;-81
2023/10/21 09:41:38;;;;;;;1.60;0.50;;;;;;;;;;5053340;28;20448;-81
2023/10/21 09:44:07;;;;;;;2.10;0.80;;;;;;;;;;5053140;28;20464;-81
2023/10/21 09:46:36;;;;;;;1.70;0.50;;;;;;;;;;5053443;28;20440;-81
2023/10/21 09:49:05;;;;;;;1.93;0.60;;;;;;;;;;5039408;28;20474;-81
2023/10/21 09:51:34;;;;;;;1.83;0.60;;;;;;;;;;5053220;28;20482;-81
2023/10/21 09:54:09;;;;;;;1.70;0.50;;;;;;;;;;5052960;28;20923;-81
2023/10/21 09:56:40;;;;;;;1.70;0.57;;;;;;;;;;5047936;28;21030;-81
2023/10/21 09:59:08;;;;;;;1.70;0.50;;;;;;;;;;5044457;28;20452;-80
2023/10/21 10:01:37;;;;;;;3.30;0.60;;;;;;;;;;5051680;28;20506;-81
2023/10/21 10:04:05;;;;;;;1.67;0.50;;;;;;;;;;5033795;28;20448;-81
2023/10/21 10:06:33;;;;;;;2.13;0.70;;;;;;;;;;5033067;28;20525;-81
2023/10/21 10:09:08;;;;;;;1.90;0.67;;;;;;;;;;5033067;28;20449;-81
2023/10/21 10:11:39;;;;;;;1.60;0.50;;;;;;;;;;5033336;28;20507;-81
2023/10/21 10:14:07;;;;;;;2.00;0.60;;;;;;;;;;5033151;28;20422;-82
2023/10/21 10:16:44;;;;;;;1.80;0.50;;;;;;;;;;5032952;28;20525;-81
2023/10/21 10:19:12;;;;;;;2.50;0.50;;;;;;;;;;5033105;28;20449;-81
2023/10/21 10:21:43;;;;;;;2.30;0.60;;;;;;;;;;5033015;28;20440;-81
2023/10/21 10:24:18;;;;;;;1.70;0.60;;;;;;;;;;5033640;28;20430;-81
2023/10/21 10:26:46;;;;;;;1.60;0.50;;;;;;;;;;5032735;28;20846;-81
2023/10/21 10:29:24;;;;;;;1.80;0.60;;;;;;;;;;5032864;28;20429;-80
2023/10/21 10:31:52;;;;;;;2.30;0.70;;;;;;;;;;5032833;28;20472;-80
2023/10/21 10:34:20;;;;;;;1.70;0.50;;;;;;;;;;5032732;28;20465;-80
2023/10/21 10:36:47;;;;;;;1.80;0.60;;;;;;;;;;5032598;28;20477;-80
2023/10/21 10:39:29;;;;;;;1.93;0.57;;;;;;;;;;5032287;28;20848;-80
2023/10/21 10:41:59;;;;;;;1.60;0.40;;;;;;;;;;5032694;28;20527;-80
2023/10/21 10:44:27;;;;;;;2.00;0.80;;;;;;;;;;5032669;28;20437;-80
2023/10/21 10:46:54;;;;;;;1.67;0.53;;;;;;;;;;5041589;28;20452;-80
2023/10/21 10:49:22;;;;;;;2.50;0.50;;;;;;;;;;5051933;28;20464;-79
2023/10/21 10:51:50;;;;;;;2.10;0.60;;;;;;;;;;5052403;28;20449;-79
2023/10/21 10:54:18;;;;;;;2.80;0.70;;;;;;;;;;5052601;28;20477;-79
2023/10/21 10:56:47;;;;;;;2.10;0.70;;;;;;;;;;5052454;28;20939;-78
2023/10/21 10:59:17;;;;;;;1.80;0.50;;;;;;;;;;5052623;28;20448;-78
2023/10/21 11:01:45;;;;;;;1.93;0.50;;;;;;;;;;5051780;28;20448;-78
2023/10/21 11:04:14;;;;;;;1.80;0.50;;;;;;;;;;5052564;28;20444;-78
2023/10/21 11:06:44;;;;;;;1.80;0.60;;;;;;;;;;5052115;28;20425;-78
2023/10/21 11:09:20;;;;;;;1.80;0.50;;;;;;;;;;5052830;28;20448;-77
2023/10/21 11:11:47;;;;;;;2.10;0.50;;;;;;;;;;5052609;28;20429;-80
2023/10/21 11:14:17;;;;;;;2.00;0.50;;;;;;;;;;5051383;28;20441;-79
2023/10/21 11:16:44;;;;;;;1.80;0.60;;;;;;;;;;5050911;28;20473;-79
2023/10/21 11:19:12;;;;;;;1.80;0.60;;;;;;;;;;5048235;28;20526;-79
2023/10/21 11:21:41;;;;;;;2.20;0.63;;;;;;;;;;5051953;28;20441;-79
2023/10/21 11:24:10;;;;;;;2.17;0.60;;;;;;;;;;5051272;28;20428;-79
2023/10/21 11:26:38;;;;;;;2.03;0.80;;;;;;;;;;5051705;28;20868;-79
2023/10/21 11:29:06;;;;;;;1.80;0.50;;;;;;;;;;5052180;28;20523;-78
2023/10/21 11:31:35;;;;;;;1.90;0.70;;;;;;;;;;5051064;28;20449;-79
2023/10/21 11:34:09;;;;;;;1.73;0.50;;;;;;;;;;5051634;28;20437;-81
2023/10/21 11:36:38;;;;;;;1.83;0.53;;;;;;;;;;5051189;28;20517;-79
2023/10/21 11:39:13;;;;;;;2.47;0.70;;;;;;;;;;5050292;28;20477;-79
2023/10/21 11:41:43;;;;;;;1.80;0.50;;;;;;;;;;5051983;28;20503;-79
2023/10/21 11:44:10;;;;;;;1.70;0.50;;;;;;;;;;5051559;28;20468;-79
2023/10/21 11:46:39;;;;;;;1.80;0.50;;;;;;;;;;5050889;28;20449;-79
2023/10/21 11:49:13;;;;;;;1.80;0.60;;;;;;;;;;5051508;28;20507;-79
2023/10/21 11:51:40;;;;;;;1.80;0.60;;;;;;;;;;5055826;28;20446;-79
2023/10/21 11:54:19;;;;;;;2.07;0.60;;;;;;;;;;5054802;28;20540;-79
2023/10/21 11:57:00;;;;;;;1.80;0.50;;;;;;;;;;5055940;28;20439;-79
2023/10/21 12:10:59;;;;;;;1.80;0.57;;;;;;;;;;5024690;28;20418;-79
2023/10/21 12:13:47;;;;;;;2.73;0.47;;;;;;;;;;5055769;28;20430;-79
2023/10/21 12:16:32;;;;;;;1.70;0.50;;;;;;;;;;5055474;28;20745;-79
2023/10/21 12:19:44;;;;;;;2.30;0.70;;;;;;;;;;5055365;28;20508;-79
2023/10/21 12:22:52;;;;;;;1.80;0.50;;;;;;;;;;5055432;28;20437;-79
2023/10/21 12:36:35;;;;;;;2.70;1.57;;;;;;;;;;5054255;28;20426;-78
2023/10/21 12:39:20;;;;;;;3.70;2.00;;;;;;;;;;5055013;28;20781;-78
2023/10/21 12:41:52;;;;;;;3.10;1.20;;;;;;;;;;5054878;28;20437;-79
2023/10/21 12:44:23;;;;;;;3.60;2.13;;;;;;;;;;5054747;28;20418;-78
2023/10/21 12:46:55;;;;;;;2.40;1.10;;;;;;;;;;5054577;28;20836;-78
2023/10/21 12:49:24;;;;;;;2.50;1.10;;;;;;;;;;5054921;28;20473;-78
2023/10/21 12:51:53;;;;;;;2.53;0.80;;;;;;;;;;5054332;28;20447;-79
2023/10/21 12:54:20;;;;;;;2.30;0.80;;;;;;;;;;5054586;28;20447;-79
2023/10/21 12:56:47;;;;;;;1.87;0.60;;;;;;;;;;5054903;28;20445;-78
2023/10/21 12:59:15;;;;;;;2.13;0.80;;;;;;;;;;5054407;28;20975;-78
2023/10/21 13:01:42;;;;;;;1.93;0.70;;;;;;;;;;5053433;28;20499;-78
2023/10/21 13:04:10;;;;;;;2.07;0.90;;;;;;;;;;5054295;28;20464;-78
2023/10/21 13:06:38;;;;;;;2.00;0.70;;;;;;;;;;5054605;28;20433;-78
2023/10/21 13:09:20;;;;;;;2.37;1.07;;;;;;;;;;5054127;28;20527;-78
2023/10/21 13:11:50;;;;;;;2.10;0.80;;;;;;;;;;5054630;28;20426;-78
2023/10/21 13:14:17;;;;;;;3.20;1.30;;;;;;;;;;5054068;28;20523;-78
2023/10/21 13:16:45;;;;;;;3.40;1.43;;;;;;;;;;5054245;28;20461;-79
2023/10/21 13:19:13;;;;;;;1.83;0.67;;;;;;;;;;5054413;28;20487;-78
2023/10/21 13:21:40;;;;;;;2.00;0.70;;;;;;;;;;5054026;28;20473;-78
2023/10/21 13:24:09;;;;;;;1.90;0.60;;;;;;;;;;5052046;28;20499;-79
2023/10/21 13:26:39;;;;;;;2.00;0.80;;;;;;;;;;5053939;28;20587;-78
2023/10/21 13:29:07;;;;;;;2.43;0.80;;;;;;;;;;5054439;28;20815;-78
2023/10/21 13:31:36;;;;;;;2.00;0.67;;;;;;;;;;5054283;28;20522;-78
2023/10/21 13:34:03;;;;;;;2.03;0.80;;;;;;;;;;5053652;28;20881;-79
2023/10/21 13:36:33;;;;;;;2.00;0.70;;;;;;;;;;5053399;28;20454;-78
2023/10/21 13:39:08;;;;;;;2.37;0.80;;;;;;;;;;5053773;28;20936;-78
2023/10/21 13:41:36;;;;;;;3.00;1.40;;;;;;;;;;5054142;28;20424;-78
2023/10/21 13:44:05;;;;;;;4.50;1.20;;;;;;;;;;5053491;28;20469;-78
2023/10/21 13:46:34;;;;;;;2.30;0.67;;;;;;;;;;5053008;28;20446;-78
2023/10/21 13:49:01;;;;;;;2.67;0.50;;;;;;;;;;5053934;28;21042;-79
2023/10/21 13:51:29;;;;;;;2.80;0.80;;;;;;;;;;5053405;28;20437;-78
2023/10/21 13:53:56;;;;;;;2.07;0.50;;;;;;;;;;5053305;28;20495;-78
2023/10/21 13:56:23;;;;;;;1.87;0.63;;;;;;;;;;5053198;28;20438;-79
2023/10/21 13:58:53;;;;;;;1.80;0.50;;;;;;;;;;5050558;28;20851;-78
2023/10/21 14:01:22;;;;;;;2.13;0.70;;;;;;;;;;5052942;28;20511;-78
2023/10/21 14:03:50;;;;;;;1.67;0.50;;;;;;;;;;5052163;28;20445;-78
2023/10/21 14:06:19;;;;;;;2.30;0.83;;;;;;;;;;5052353;28;20892;-78
2023/10/21 14:08:48;;;;;;;2.40;0.93;;;;;;;;;;5052704;28;20470;-78
2023/10/21 14:11:18;;;;;;;2.27;0.90;;;;;;;;;;5052497;28;20944;-78
2023/10/21 14:13:47;;;;;;;1.97;0.70;;;;;;;;;;5051542;28;20434;-78
2023/10/21 14:16:15;;;;;;;3.27;0.80;;;;;;;;;;5053461;28;20524;-78
2023/10/21 14:18:44;;;;;;;2.40;0.70;;;;;;;;;;5053040;28;20476;-78
2023/10/21 14:21:12;;;;;;;1.90;0.60;;;;;;;;;;5052780;28;20536;-78
2023/10/21 14:23:39;;;;;;;4.00;0.93;;;;;;;;;;5053487;28;20774;-78
2023/10/21 14:26:07;;;;;;;1.90;0.60;;;;;;;;;;5052828;28;20441;-78
2023/10/21 14:28:34;;;;;;;2.10;0.70;;;;;;;;;;5051713;28;20978;-78
2023/10/21 14:31:03;;;;;;;1.80;0.60;;;;;;;;;;5052945;28;20437;-78
2023/10/21 14:33:32;;;;;;;1.77;0.60;;;;;;;;;;5052433;28;20437;-78
2023/10/21 14:36:05;;;;;;;1.90;0.60;;;;;;;;;;5052452;28;20434;-78
2023/10/21 14:38:32;;;;;;;2.27;1.37;;;;;;;;;;5052569;28;20908;-78
2023/10/21 14:41:00;;;;;;;2.53;0.70;;;;;;;;;;5052615;28;20936;-78
2023/10/21 14:43:27;;;;;;;2.40;0.80;;;;;;;;;;5048357;28;20454;-78
2023/10/21 14:45:54;;;;;;;2.30;0.70;;;;;;;;;;5045041;28;20434;-79
2023/10/21 14:48:23;;;;;;;2.90;0.70;;;;;;;;;;5052765;28;20488;-78
2023/10/21 14:50:52;;;;;;;2.30;1.20;;;;;;;;;;5055054;28;20460;-79
2023/10/21 14:53:20;;;;;;;2.20;0.90;;;;;;;;;;5050964;28;20615;-79
2023/10/21 14:55:49;;;;;;;4.83;1.80;;;;;;;;;;5051569;28;20521;-78
2023/10/21 14:58:16;;;;;;;3.40;1.30;;;;;;;;;;5052017;28;20456;-79
2023/10/21 15:00:44;;;;;;;2.10;1.00;;;;;;;;;;5052124;28;20421;-79
2023/10/21 15:03:16;;;;;;;2.10;0.73;;;;;;;;;;5051668;28;20441;-79
2023/10/21 15:05:45;;;;;;;2.43;0.90;;;;;;;;;;5052150;28;20812;-79
2023/10/21 15:08:19;;;;;;;3.00;0.80;;;;;;;;;;5052029;28;21135;-79
2023/10/21 15:10:47;;;;;;;2.30;0.67;;;;;;;;;;5052394;28;20429;-79
2023/10/21 15:13:14;;;;;;;3.70;1.27;;;;;;;;;;5051855;28;20445;-79
2023/10/21 15:15:42;;;;;;;1.90;0.60;;;;;;;;;;5051974;28;20516;-79
2023/10/21 15:18:10;;;;;;;2.30;0.80;;;;;;;;;;5051705;28;20502;-80